Time;durP1;ratioP1;P1;durP2;ratioP2;P2;SDS_P1;SDS_P2;PMS_P1;PMS_P2;Temp;Humidity;BMP_temperature;BMP_pressure;BME280_temperature;BME280_humidity;BME280_pressure;Samples;Min_cycle;Max_cycle;Signal;HPM_P1;HPM_P2
2021/06/06 00:00:48;;;;;;;7.10;4.38;;;22.80;99.90;;;;;;4977202;28;20041;-88
2021/06/06 00:03:21;;;;;;;9.65;4.45;;;22.80;99.90;;;;;;4976910;28;20031;-87
2021/06/06 00:05:53;;;;;;;11.80;5.22;;;22.80;99.90;;;;;;4975578;28;20042;-85
2021/06/06 00:08:20;;;;;;;12.77;4.60;;;22.80;99.90;;;;;;4975664;28;20023;-85
2021/06/06 00:10:48;;;;;;;10.02;4.18;;;22.80;99.90;;;;;;4976586;28;20026;-85
2021/06/06 00:13:16;;;;;;;10.32;3.90;;;22.90;99.90;;;;;;4976292;28;20042;-88
2021/06/06 00:15:43;;;;;;;13.98;4.65;;;22.90;99.90;;;;;;4976711;28;20027;-85
2021/06/06 00:18:09;;;;;;;11.07;4.75;;;22.90;99.90;;;;;;4975985;28;20081;-88
2021/06/06 00:20:37;;;;;;;13.02;4.78;;;22.90;99.90;;;;;;4975225;28;20378;-87
2021/06/06 00:23:04;;;;;;;20.42;5.57;;;22.90;99.90;;;;;;4975927;28;20031;-87
2021/06/06 00:25:30;;;;;;;9.77;5.05;;;22.90;99.90;;;;;;4966987;28;20450;-78
2021/06/06 00:27:56;;;;;;;10.98;4.57;;;23.00;99.90;;;;;;4974393;28;20022;-82
2021/06/06 00:30:23;;;;;;;9.77;4.22;;;23.00;99.90;;;;;;4975563;28;20386;-87
2021/06/06 00:32:49;;;;;;;6.30;4.10;;;23.00;99.90;;;;;;4975542;28;20690;-82
2021/06/06 00:35:15;;;;;;;23.67;4.90;;;23.00;99.90;;;;;;4974957;28;20089;-86
2021/06/06 00:37:42;;;;;;;13.30;4.63;;;23.00;99.90;;;;;;4975149;28;20019;-78
2021/06/06 00:40:10;;;;;;;15.27;4.85;;;23.00;99.90;;;;;;4983711;28;20028;-88
2021/06/06 00:42:36;;;;;;;16.33;5.10;;;23.00;99.90;;;;;;4985412;28;20051;-86
2021/06/06 00:45:06;;;;;;;8.48;4.90;;;23.00;99.90;;;;;;4990430;28;20450;-81
2021/06/06 00:47:32;;;;;;;10.30;5.32;;;23.00;99.90;;;;;;4986534;28;20038;-89
2021/06/06 00:49:58;;;;;;;10.40;4.68;;;23.00;99.90;;;;;;4989050;28;20042;-84
2021/06/06 00:52:24;;;;;;;11.90;5.22;;;23.00;99.90;;;;;;4988383;28;20109;-87
2021/06/06 00:54:51;;;;;;;13.07;5.43;;;23.00;99.90;;;;;;4974245;28;20078;-80
2021/06/06 00:57:22;;;;;;;11.85;5.43;;;23.00;99.90;;;;;;4974765;28;20023;-87
2021/06/06 01:00:06;;;;;;;6.75;5.03;;;23.00;99.90;;;;;;4974696;28;20573;-82
2021/06/06 01:02:32;;;;;;;13.48;5.45;;;23.00;99.90;;;;;;4975588;28;20035;-87
2021/06/06 01:04:58;;;;;;;7.40;4.68;;;23.00;99.90;;;;;;4975786;28;20057;-83
2021/06/06 01:07:24;;;;;;;9.15;4.65;;;23.00;99.90;;;;;;4974990;28;20130;-87
2021/06/06 01:09:49;;;;;;;11.50;5.10;;;23.00;99.90;;;;;;4974637;28;20054;-87
2021/06/06 01:12:24;;;;;;;11.63;4.72;;;23.00;99.90;;;;;;4975259;28;20027;-80
2021/06/06 01:15:15;;;;;;;10.70;4.53;;;23.00;99.90;;;;;;4975508;28;20023;-77
2021/06/06 01:17:51;;;;;;;7.13;4.60;;;23.00;99.90;;;;;;4975664;28;20543;-87
2021/06/06 01:20:37;;;;;;;13.32;5.00;;;23.00;99.90;;;;;;4974831;28;20037;-82
2021/06/06 01:23:21;;;;;;;22.52;5.43;;;22.90;99.90;;;;;;4975194;28;20045;-76
2021/06/06 01:25:50;;;;;;;11.38;5.03;;;22.80;99.90;;;;;;4974754;28;20153;-84
2021/06/06 01:28:33;;;;;;;10.95;4.78;;;22.80;99.90;;;;;;4974517;28;20034;-77
2021/06/06 01:31:02;;;;;;;21.30;5.75;;;22.70;99.90;;;;;;4975361;28;20543;-90
2021/06/06 01:33:34;;;;;;;12.98;4.90;;;22.70;99.90;;;;;;4974855;28;20058;-78
2021/06/06 01:36:13;;;;;;;9.65;4.90;;;22.70;99.90;;;;;;4959150;28;20544;-77
2021/06/06 01:39:03;;;;;;;9.63;5.25;;;22.70;99.90;;;;;;4975110;28;20199;-90
2021/06/06 01:41:35;;;;;;;20.85;5.60;;;22.70;99.90;;;;;;4975005;28;20050;-88
2021/06/06 01:44:05;;;;;;;13.75;5.22;;;22.70;99.90;;;;;;4958810;28;20110;-85
2021/06/06 01:46:41;;;;;;;8.43;4.70;;;22.60;99.90;;;;;;4974784;28;20380;-76
2021/06/06 01:49:08;;;;;;;11.50;6.10;;;22.50;99.90;;;;;;4983281;28;20555;-74
2021/06/06 01:52:03;;;;;;;12.52;5.63;;;22.40;99.90;;;;;;4993417;28;20084;-74
2021/06/06 01:54:33;;;;;;;18.45;6.72;;;22.40;99.90;;;;;;4993053;28;20062;-76
2021/06/06 01:56:59;;;;;;;13.45;7.10;;;22.20;99.90;;;;;;4990006;28;20034;-75
2021/06/06 01:59:32;;;;;;;16.20;6.90;;;22.10;99.90;;;;;;4993579;28;20439;-75
2021/06/06 02:01:58;;;;;;;10.18;6.88;;;22.00;99.90;;;;;;4988722;28;20113;-76
2021/06/06 02:04:24;;;;;;;17.35;6.85;;;21.80;99.90;;;;;;4992967;28;20503;-76
2021/06/06 02:07:00;;;;;;;11.57;6.55;;;21.70;99.90;;;;;;4992445;28;20030;-76
2021/06/06 02:09:30;;;;;;;13.27;7.22;;;21.60;99.90;;;;;;4992599;28;20110;-78
2021/06/06 02:12:00;;;;;;;16.52;8.32;;;21.50;99.90;;;;;;4993005;28;20041;-76
2021/06/06 02:14:30;;;;;;;14.18;7.30;;;21.40;99.90;;;;;;4993091;28;20018;-76
2021/06/06 02:16:59;;;;;;;14.63;8.13;;;21.20;99.90;;;;;;4990198;28;20034;-76
2021/06/06 02:19:27;;;;;;;10.55;7.30;;;21.10;99.90;;;;;;4992832;28;20038;-76
2021/06/06 02:21:55;;;;;;;11.05;8.02;;;21.00;99.90;;;;;;4987858;28;20105;-75
2021/06/06 02:24:22;;;;;;;12.55;7.78;;;20.90;99.90;;;;;;4992967;28;20014;-76
2021/06/06 02:26:54;;;;;;;10.38;8.15;;;20.90;99.90;;;;;;4989234;28;20440;-75
2021/06/06 02:29:42;;;;;;;24.23;8.40;;;20.80;99.90;;;;;;4992628;28;20026;-75
2021/06/06 02:32:15;;;;;;;12.60;7.90;;;20.70;99.90;;;;;;4992344;28;20054;-76
2021/06/06 02:35:07;;;;;;;15.57;8.38;;;20.70;99.90;;;;;;4992678;28;20045;-75
2021/06/06 02:37:36;;;;;;;;;;;20.70;99.90;;;;;;4976904;28;20080;-75
2021/06/06 02:40:09;;;;;;;22.75;9.82;;;20.70;99.90;;;;;;4982491;28;20264;-75
2021/06/06 02:42:43;;;;;;;13.68;8.82;;;20.70;99.90;;;;;;4973423;28;20030;-75
2021/06/06 02:45:15;;;;;;;17.35;8.25;;;20.60;99.90;;;;;;4989999;28;20014;-75
2021/06/06 02:47:42;;;;;;;25.10;9.00;;;20.60;99.90;;;;;;4991877;28;20104;-75
2021/06/06 02:50:14;;;;;;;17.80;9.18;;;20.50;99.90;;;;;;4991765;28;20061;-75
2021/06/06 02:52:45;;;;;;;34.92;9.63;;;20.50;99.90;;;;;;4992743;28;20089;-76
2021/06/06 02:55:22;;;;;;;12.77;9.03;;;20.40;99.90;;;;;;4992435;28;20057;-74
2021/06/06 02:57:54;;;;;;;14.07;8.35;;;20.40;99.90;;;;;;4981025;28;20022;-75
2021/06/06 03:00:29;;;;;;;15.68;8.77;;;20.30;99.90;;;;;;4992177;28;20037;-75
2021/06/06 03:03:02;;;;;;;18.77;9.50;;;20.40;99.90;;;;;;4988910;28;20029;-74
2021/06/06 03:05:30;;;;;;;20.27;9.23;;;20.30;99.90;;;;;;4992264;28;20030;-75
2021/06/06 03:08:00;;;;;;;13.45;8.55;;;20.40;99.90;;;;;;4992744;28;20026;-76
2021/06/06 03:10:28;;;;;;;20.58;8.48;;;20.30;99.90;;;;;;4992694;28;20022;-75
2021/06/06 03:12:56;;;;;;;12.75;8.65;;;20.30;99.90;;;;;;4987802;28;20021;-75
2021/06/06 03:15:31;;;;;;;18.17;8.32;;;20.40;99.90;;;;;;4984164;28;20076;-81
2021/06/06 03:17:58;;;;;;;13.50;7.97;;;20.40;99.90;;;;;;4993880;28;20383;-75
2021/06/06 03:20:39;;;;;;;12.93;7.38;;;20.40;99.90;;;;;;4989441;28;20023;-74
2021/06/06 03:23:07;;;;;;;11.30;7.82;;;20.40;99.90;;;;;;4989984;28;20058;-81
2021/06/06 03:25:44;;;;;;;14.10;8.30;;;20.40;99.90;;;;;;4988506;28;20062;-75
2021/06/06 03:28:15;;;;;;;16.45;8.02;;;20.40;99.90;;;;;;4994381;28;20050;-80
2021/06/06 03:30:55;;;;;;;18.30;7.43;;;20.50;99.90;;;;;;4996097;28;20050;-74
2021/06/06 03:33:30;;;;;;;11.10;6.50;;;20.40;99.90;;;;;;4996318;28;20451;-75
2021/06/06 03:35:56;;;;;;;11.68;7.60;;;20.50;99.90;;;;;;4991684;28;20058;-75
2021/06/06 03:38:22;;;;;;;11.45;6.68;;;20.50;99.90;;;;;;4995742;28;20164;-76
2021/06/06 03:40:47;;;;;;;13.45;6.40;;;20.50;99.90;;;;;;4995764;28;20026;-75
2021/06/06 03:43:17;;;;;;;12.60;7.38;;;20.50;99.90;;;;;;4989019;28;20547;-74
2021/06/06 03:45:43;;;;;;;12.48;7.25;;;20.50;99.90;;;;;;4995743;28;20082;-74
2021/06/06 03:48:09;;;;;;;13.02;7.50;;;20.60;99.90;;;;;;4995711;28;20081;-74
2021/06/06 03:50:38;;;;;;;12.02;6.95;;;20.60;99.90;;;;;;4996189;28;20029;-74
2021/06/06 03:53:05;;;;;;;13.95;7.63;;;20.60;99.90;;;;;;4996086;28;20026;-75
2021/06/06 03:55:30;;;;;;;11.18;6.75;;;20.60;99.90;;;;;;4989275;28;20053;-74
2021/06/06 03:57:56;;;;;;;17.30;7.30;;;20.70;99.90;;;;;;4995963;28;20724;-76
2021/06/06 04:00:33;;;;;;;12.68;7.40;;;20.70;99.90;;;;;;4995710;28;20034;-75
2021/06/06 04:03:00;;;;;;;13.63;7.40;;;20.70;99.90;;;;;;4989608;28;20098;-74
2021/06/06 04:05:27;;;;;;;12.93;6.80;;;20.70;99.90;;;;;;4995755;28;20109;-74
2021/06/06 04:07:53;;;;;;;16.25;7.40;;;20.70;99.90;;;;;;4995429;28;20030;-75
2021/06/06 04:10:20;;;;;;;12.90;7.00;;;20.60;99.90;;;;;;4994374;28;20049;-75
2021/06/06 04:12:46;;;;;;;15.70;6.72;;;20.50;99.90;;;;;;4994986;28;20022;-75
2021/06/06 04:15:13;;;;;;;12.80;6.93;;;20.50;99.90;;;;;;4995140;28;20018;-76
2021/06/06 04:17:39;;;;;;;8.48;6.70;;;20.40;99.90;;;;;;4995681;28;20029;-75
2021/06/06 04:20:07;;;;;;;14.00;6.93;;;20.40;99.90;;;;;;4992899;28;20022;-74
2021/06/06 04:22:33;;;;;;;12.57;5.60;;;20.40;99.90;;;;;;4990772;28;20027;-74
2021/06/06 04:24:59;;;;;;;12.27;6.70;;;20.30;99.90;;;;;;4982185;28;20090;-73
2021/06/06 04:27:24;;;;;;;16.27;7.53;;;20.20;99.90;;;;;;4994627;28;20442;-75
2021/06/06 04:29:50;;;;;;;9.60;6.47;;;20.30;99.90;;;;;;4987243;28;20031;-76
2021/06/06 04:32:18;;;;;;;11.23;7.05;;;20.30;99.90;;;;;;4995347;28;20026;-79
2021/06/06 04:34:45;;;;;;;12.63;7.65;;;20.40;99.90;;;;;;4995066;28;20431;-74
2021/06/06 04:37:12;;;;;;;16.50;7.45;;;20.40;99.90;;;;;;4994643;28;20535;-74
2021/06/06 04:39:50;;;;;;;9.93;7.10;;;20.50;99.90;;;;;;4994818;28;20014;-75
2021/06/06 04:42:18;;;;;;;14.68;6.80;;;20.50;99.90;;;;;;4990965;28;20027;-75
2021/06/06 04:44:44;;;;;;;11.93;6.65;;;20.60;99.90;;;;;;4989721;28;20050;-77
2021/06/06 04:47:11;;;;;;;13.02;7.53;;;20.70;99.90;;;;;;4993212;28;20039;-75
2021/06/06 04:49:39;;;;;;;12.63;7.65;;;20.80;99.90;;;;;;4992960;28;20045;-75
2021/06/06 04:52:06;;;;;;;10.18;6.45;;;21.00;99.90;;;;;;4990472;28;20482;-75
2021/06/06 04:54:32;;;;;;;21.35;6.72;;;21.10;99.90;;;;;;4994277;28;20072;-80
2021/06/06 04:56:58;;;;;;;10.13;6.70;;;21.20;99.90;;;;;;4994636;28;20402;-80
2021/06/06 04:59:24;;;;;;;13.02;7.15;;;21.40;99.90;;;;;;4994927;28;20042;-76
2021/06/06 05:01:49;;;;;;;14.10;6.93;;;21.40;99.90;;;;;;4994431;28;20026;-77
2021/06/06 05:04:16;;;;;;;8.85;6.47;;;21.40;99.90;;;;;;4994549;28;20025;-76
2021/06/06 05:06:42;;;;;;;10.52;6.30;;;21.50;99.90;;;;;;4992203;28;20421;-76
2021/06/06 05:09:08;;;;;;;8.65;4.88;;;21.50;99.90;;;;;;4992948;28;20019;-76
2021/06/06 05:11:35;;;;;;;14.20;6.57;;;21.40;99.90;;;;;;4989171;28;20030;-75
2021/06/06 05:14:03;;;;;;;10.48;6.32;;;21.40;99.90;;;;;;4992367;28;20083;-76
2021/06/06 05:16:29;;;;;;;20.75;6.10;;;21.40;99.90;;;;;;4994300;28;20498;-75
2021/06/06 05:18:56;;;;;;;9.05;6.60;;;21.30;99.90;;;;;;4993593;28;20030;-75
2021/06/06 05:21:23;;;;;;;10.18;5.78;;;21.40;99.90;;;;;;4994367;28;20073;-75
2021/06/06 05:23:48;;;;;;;17.60;6.72;;;21.40;99.90;;;;;;4976529;28;20084;-77
2021/06/06 05:26:15;;;;;;;10.70;6.05;;;21.40;99.90;;;;;;4994305;28;20072;-76
2021/06/06 05:28:40;;;;;;;15.23;6.55;;;21.30;99.90;;;;;;4988945;28;20022;-75
2021/06/06 05:31:07;;;;;;;7.50;5.72;;;21.30;99.90;;;;;;4994254;28;20189;-76
2021/06/06 05:33:33;;;;;;;13.73;7.20;;;21.30;99.90;;;;;;4991321;28;20069;-76
2021/06/06 05:35:59;;;;;;;15.18;6.60;;;21.30;99.90;;;;;;4993911;28;20027;-75
2021/06/06 05:38:28;;;;;;;15.70;6.25;;;21.20;99.90;;;;;;4994097;28;20113;-75
2021/06/06 05:40:55;;;;;;;13.48;6.75;;;21.20;99.90;;;;;;4975871;28;20081;-75
2021/06/06 05:43:21;;;;;;;10.98;6.57;;;21.20;99.90;;;;;;4993202;28;20106;-78
2021/06/06 05:45:48;;;;;;;11.77;6.65;;;21.20;99.90;;;;;;4993510;28;20070;-75
2021/06/06 05:48:15;;;;;;;12.35;7.13;;;21.20;99.90;;;;;;4987105;28;20039;-78
2021/06/06 05:50:43;;;;;;;9.45;6.68;;;21.20;99.90;;;;;;4993262;28;20022;-76
2021/06/06 05:53:09;;;;;;;15.05;7.07;;;21.20;99.90;;;;;;4991848;28;20088;-76
2021/06/06 05:55:35;;;;;;;15.40;7.55;;;21.20;99.90;;;;;;4992099;28;20057;-81
2021/06/06 05:58:01;;;;;;;15.20;7.70;;;21.20;99.90;;;;;;4993287;28;20471;-75
2021/06/06 06:00:37;;;;;;;13.30;7.03;;;21.20;99.90;;;;;;4993428;28;20026;-83
2021/06/06 06:03:04;;;;;;;15.25;7.72;;;21.20;99.90;;;;;;4977130;28;20029;-76
2021/06/06 06:05:29;;;;;;;15.55;7.05;;;21.20;99.90;;;;;;4992840;28;20028;-81
2021/06/06 06:07:56;;;;;;;15.75;8.20;;;21.20;99.90;;;;;;4993183;28;20027;-82
2021/06/06 06:10:28;;;;;;;24.38;8.60;;;21.10;99.90;;;;;;4993146;28;20463;-81
2021/06/06 06:12:55;;;;;;;13.52;7.68;;;21.10;99.90;;;;;;4993242;28;20105;-76
2021/06/06 06:15:22;;;;;;;15.95;7.95;;;21.10;99.90;;;;;;4993477;28;20040;-76
2021/06/06 06:17:48;;;;;;;23.17;8.52;;;21.10;99.90;;;;;;4993066;28;20117;-76
2021/06/06 06:20:17;;;;;;;20.08;8.45;;;21.10;99.90;;;;;;4992950;28;20455;-84
2021/06/06 06:22:43;;;;;;;24.75;10.57;;;21.10;99.90;;;;;;4992846;28;20452;-84
2021/06/06 06:25:11;;;;;;;20.45;9.82;;;21.00;99.90;;;;;;4975528;28;20025;-82
2021/06/06 06:27:37;;;;;;;20.73;8.90;;;21.00;99.90;;;;;;4988117;28;20457;-83
2021/06/06 06:30:24;;;;;;;15.95;8.63;;;20.90;99.90;;;;;;4992605;28;20117;-85
2021/06/06 06:32:50;;;;;;;15.60;8.55;;;20.90;99.90;;;;;;4992238;28;20065;-83
2021/06/06 06:35:17;;;;;;;16.90;7.00;;;20.90;99.90;;;;;;4992181;28;20061;-78
2021/06/06 06:37:42;;;;;;;18.77;8.50;;;20.80;99.90;;;;;;4992916;28;20038;-75
2021/06/06 06:40:10;;;;;;;16.17;9.35;;;20.80;99.90;;;;;;4992389;28;20026;-76
2021/06/06 06:42:36;;;;;;;26.88;12.15;;;20.80;99.90;;;;;;4993054;28;20076;-81
2021/06/06 06:45:04;;;;;;;23.48;10.90;;;20.80;99.90;;;;;;4992776;28;20034;-81
2021/06/06 06:47:30;;;;;;;24.48;12.77;;;20.80;99.90;;;;;;4992810;28;20030;-84
2021/06/06 06:49:57;;;;;;;28.40;11.82;;;20.70;99.90;;;;;;4974913;28;20050;-81
2021/06/06 06:52:22;;;;;;;25.90;10.88;;;20.70;99.90;;;;;;4992643;28;20053;-84
2021/06/06 06:54:48;;;;;;;25.80;10.63;;;20.70;99.90;;;;;;4992553;28;20164;-83
2021/06/06 06:57:14;;;;;;;42.75;10.25;;;20.70;99.90;;;;;;4992549;28;20029;-84
2021/06/06 06:59:40;;;;;;;40.90;9.73;;;20.60;99.90;;;;;;4992932;28;20486;-84
2021/06/06 07:02:06;;;;;;;32.15;9.48;;;20.50;99.90;;;;;;4992167;28;20033;-81
2021/06/06 07:04:32;;;;;;;39.88;9.40;;;20.40;99.90;;;;;;4992770;28;20106;-76
2021/06/06 07:06:58;;;;;;;43.47;9.18;;;20.30;99.90;;;;;;4992455;28;20471;-79
2021/06/06 07:09:25;;;;;;;36.95;11.52;;;20.30;99.90;;;;;;4985218;28;20034;-77
2021/06/06 07:11:53;;;;;;;35.92;9.55;;;20.20;99.90;;;;;;4986582;28;20034;-78
2021/06/06 07:14:19;;;;;;;37.22;9.85;;;20.10;99.90;;;;;;4994065;28;20120;-81
2021/06/06 07:16:45;;;;;;;43.40;10.18;;;20.00;99.90;;;;;;4991901;28;20451;-79
2021/06/06 07:19:11;;;;;;;28.63;10.23;;;19.90;99.90;;;;;;4991330;28;20033;-79
2021/06/06 07:21:37;;;;;;;47.20;19.35;;;19.80;99.90;;;;;;4987863;28;20102;-84
2021/06/06 07:24:04;;;;;;;45.45;20.20;;;19.80;99.90;;;;;;4989390;28;20497;-76
2021/06/06 07:26:41;;;;;;;36.45;10.05;;;19.80;99.90;;;;;;4991901;28;20042;-79
2021/06/06 07:29:09;;;;;;;26.50;9.20;;;19.70;99.90;;;;;;4974662;28;20025;-78
2021/06/06 07:31:38;;;;;;;31.85;10.65;;;19.60;99.90;;;;;;4991233;28;20093;-81
2021/06/06 07:34:04;;;;;;;32.65;11.90;;;19.50;99.90;;;;;;4985114;28;20498;-82
2021/06/06 07:36:30;;;;;;;29.35;10.15;;;19.40;99.90;;;;;;4991927;28;20122;-81
2021/06/06 07:38:56;;;;;;;26.55;10.20;;;19.40;99.90;;;;;;4985921;28;20015;-82
2021/06/06 07:41:23;;;;;;;30.55;10.27;;;19.30;99.90;;;;;;4991905;28;21209;-81
2021/06/06 07:43:49;;;;;;;34.88;13.93;;;19.20;99.90;;;;;;4991465;28;20027;-81
2021/06/06 07:46:15;;;;;;;26.17;11.57;;;19.20;99.90;;;;;;4993381;28;20431;-82
2021/06/06 07:48:42;;;;;;;26.20;11.35;;;19.10;99.90;;;;;;4990879;28;20054;-80
2021/06/06 07:51:08;;;;;;;26.13;11.15;;;19.10;99.90;;;;;;4993708;28;20386;-80
2021/06/06 07:53:34;;;;;;;25.48;10.68;;;19.20;99.90;;;;;;4984789;28;20022;-78
2021/06/06 07:56:00;;;;;;;24.17;10.75;;;19.20;99.90;;;;;;4989078;28;20387;-80
2021/06/06 07:58:31;;;;;;;21.60;10.45;;;19.20;99.90;;;;;;4991283;28;20627;-74
2021/06/06 08:00:57;;;;;;;24.10;10.45;;;19.10;99.90;;;;;;4991105;28;20099;-81
2021/06/06 08:03:35;;;;;;;22.27;9.43;;;19.10;99.90;;;;;;4992037;28;20026;-75
2021/06/06 08:06:04;;;;;;;18.13;8.63;;;19.20;99.90;;;;;;4991203;28;20555;-80
2021/06/06 08:08:30;;;;;;;22.02;9.70;;;19.30;99.90;;;;;;4993616;28;20026;-80
2021/06/06 08:10:59;;;;;;;14.23;7.47;;;19.30;99.90;;;;;;4990097;28;20031;-87
2021/06/06 08:13:25;;;;;;;15.00;7.25;;;19.50;99.90;;;;;;4982050;28;20019;-79
2021/06/06 08:15:51;;;;;;;17.45;6.60;;;19.70;99.90;;;;;;4995141;28;20033;-78
2021/06/06 08:18:28;;;;;;;15.95;5.60;;;19.90;99.90;;;;;;4995623;28;20478;-81
2021/06/06 08:21:00;;;;;;;15.63;6.05;;;19.90;99.90;;;;;;4994465;28;20018;-85
2021/06/06 08:23:25;;;;;;;;;;;20.00;99.90;;;;;;4995537;28;20061;-80
2021/06/06 08:25:52;;;;;;;10.40;5.70;;;20.10;99.90;;;;;;4977338;28;19945;-79
2021/06/06 08:28:20;;;;;;;20.58;6.57;;;20.20;99.90;;;;;;4994636;28;20042;-83
2021/06/06 08:30:56;;;;;;;14.32;5.80;;;20.30;99.90;;;;;;4993795;28;20030;-84
2021/06/06 08:33:24;;;;;;;9.32;5.15;;;20.40;99.90;;;;;;4992732;28;20082;-81
2021/06/06 08:35:52;;;;;;;12.38;6.68;;;20.50;99.90;;;;;;4992701;28;20022;-84
2021/06/06 08:38:18;;;;;;;7.50;4.78;;;20.60;99.90;;;;;;4993218;28;20178;-82
2021/06/06 08:40:51;;;;;;;9.50;5.75;;;20.70;99.90;;;;;;4993451;28;20041;-76
2021/06/06 08:43:18;;;;;;;10.65;6.22;;;20.90;99.90;;;;;;4994354;28;20034;-79
2021/06/06 08:45:48;;;;;;;13.52;6.97;;;21.00;99.90;;;;;;4994031;28;20035;-80
2021/06/06 08:48:17;;;;;;;16.30;7.85;;;21.30;99.90;;;;;;4985263;28;20078;-77
2021/06/06 08:50:48;;;;;;;10.57;7.03;;;21.60;99.90;;;;;;4992890;28;20018;-74
2021/06/06 08:53:55;;;;;;;15.75;7.45;;;21.90;99.90;;;;;;4983942;28;20049;-75
2021/06/06 08:56:34;;;;;;;17.30;7.82;;;22.30;99.90;;;;;;4990784;28;20054;-74
2021/06/06 08:59:04;;;;;;;9.20;5.93;;;22.70;99.90;;;;;;4990532;28;20026;-73
2021/06/06 09:01:59;;;;;;;11.35;4.50;;;23.10;99.90;;;;;;4991052;28;20030;-74
2021/06/06 09:04:31;;;;;;;14.05;5.43;;;23.50;99.90;;;;;;4992553;28;20083;-74
2021/06/06 09:07:13;;;;;;;17.02;4.85;;;24.10;99.90;;;;;;4992431;28;20149;-75
2021/06/06 09:09:48;;;;;;;5.18;4.10;;;24.50;99.90;;;;;;4991297;28;20467;-79
2021/06/06 09:12:19;;;;;;;7.90;4.63;;;24.70;99.90;;;;;;4987157;28;20031;-75
2021/06/06 09:14:48;;;;;;;9.88;4.68;;;25.10;99.90;;;;;;4992062;28;20058;-72
2021/06/06 09:17:18;;;;;;;5.47;3.30;;;25.60;99.90;;;;;;4988916;28;20030;-79
2021/06/06 09:19:45;;;;;;;8.80;3.35;;;26.00;99.90;;;;;;4989583;28;20023;-81
2021/06/06 09:22:14;;;;;;;7.90;3.17;;;26.40;99.90;;;;;;4987919;28;20026;-80
2021/06/06 09:24:46;;;;;;;5.35;2.75;;;26.70;99.90;;;;;;4992021;28;20014;-81
2021/06/06 09:27:15;;;;;;;12.07;3.10;;;26.80;99.90;;;;;;4993395;28;20045;-78
2021/06/06 09:29:42;;;;;;;2.97;1.77;;;27.20;99.90;;;;;;4991487;28;20029;-76
2021/06/06 09:32:19;;;;;;;3.85;1.95;;;27.10;99.90;;;;;;4993093;28;20070;-82
2021/06/06 09:35:14;;;;;;;6.03;2.00;;;26.90;99.90;;;;;;4991111;28;20023;-74
2021/06/06 09:37:45;;;;;;;2.83;1.80;;;27.10;99.90;;;;;;4987978;28;20039;-72
2021/06/06 09:40:15;;;;;;;4.65;1.73;;;27.40;99.90;;;;;;4975833;28;20483;-78
2021/06/06 09:42:47;;;;;;;5.65;1.80;;;27.30;99.90;;;;;;4981840;28;20050;-72
2021/06/06 09:45:46;;;;;;;6.50;2.00;;;26.80;99.90;;;;;;4987521;28;20451;-73
2021/06/06 09:48:24;;;;;;;4.72;2.40;;;26.70;99.90;;;;;;4984698;28;20043;-74
2021/06/06 09:50:53;;;;;;;5.00;2.20;;;26.30;99.90;;;;;;4968974;28;20116;-74
2021/06/06 09:53:27;;;;;;;3.55;2.75;;;26.60;99.90;;;;;;4987776;28;20043;-75
2021/06/06 09:56:25;;;;;;;7.45;2.65;;;26.30;99.90;;;;;;4989375;28;20462;-77
2021/06/06 09:58:53;;;;;;;3.38;2.28;;;26.40;99.90;;;;;;4991200;28;20033;-74
2021/06/06 10:01:31;;;;;;;10.88;2.33;;;26.30;99.90;;;;;;4976820;28;20034;-74
2021/06/06 10:04:02;;;;;;;10.25;3.05;;;26.30;99.90;;;;;;4992067;28;20562;-75
2021/06/06 10:06:32;;;;;;;5.47;2.00;;;26.60;99.90;;;;;;4990375;28;20514;-74
2021/06/06 10:09:15;;;;;;;2.85;1.70;;;26.80;99.90;;;;;;4991047;28;20018;-78
2021/06/06 10:12:00;;;;;;;2.45;1.60;;;26.90;99.90;;;;;;4990200;28;20048;-74
2021/06/06 10:14:35;;;;;;;5.50;1.73;;;26.90;99.90;;;;;;4987878;28;20023;-79
2021/06/06 10:17:06;;;;;;;5.28;2.10;;;27.20;99.90;;;;;;4981084;28;20031;-75
2021/06/06 10:19:45;;;;;;;5.55;1.60;;;27.50;99.90;;;;;;4991037;28;20022;-74
2021/06/06 10:22:22;;;;;;;3.75;1.90;;;27.80;99.90;;;;;;4985742;28;20022;-75
2021/06/06 10:24:57;;;;;;;3.67;2.10;;;28.10;99.90;;;;;;4965835;28;20470;-78
2021/06/06 10:27:39;;;;;;;2.10;1.40;;;28.00;99.90;;;;;;4991547;28;20038;-74
2021/06/06 10:30:12;;;;;;;5.63;1.70;;;27.60;99.90;;;;;;4989496;28;20054;-75
2021/06/06 10:32:43;;;;;;;2.72;1.70;;;27.60;99.90;;;;;;4990497;28;20041;-75
2021/06/06 10:35:29;;;;;;;4.50;2.17;;;27.50;99.90;;;;;;4974008;28;20015;-83
2021/06/06 10:37:58;;;;;;;2.70;1.83;;;27.60;99.90;;;;;;4987761;28;20522;-80
2021/06/06 10:40:46;;;;;;;3.35;1.52;;;27.80;99.90;;;;;;4972736;28;20109;-78
2021/06/06 10:43:40;;;;;;;2.95;1.70;;;28.00;99.90;;;;;;4990777;28;20438;-81
2021/06/06 10:46:16;;;;;;;3.20;1.42;;;28.20;99.90;;;;;;4988862;28;20499;-76
2021/06/06 10:48:54;;;;;;;4.13;2.35;;;28.30;99.90;;;;;;4978833;28;20047;-81
2021/06/06 10:51:42;;;;;;;6.80;3.03;;;28.50;99.90;;;;;;4971384;28;20082;-82
2021/06/06 10:54:30;;;;;;;8.80;2.90;;;28.60;99.90;;;;;;4969979;28;20097;-81
2021/06/06 10:57:01;;;;;;;15.63;2.80;;;28.30;99.90;;;;;;4968910;28;20487;-80
2021/06/06 10:59:35;;;;;;;7.35;2.85;;;28.00;99.90;;;;;;4954037;28;20052;-79
2021/06/06 11:02:03;;;;;;;11.70;3.78;;;27.80;99.90;;;;;;4970557;28;21339;-79
2021/06/06 11:04:45;;;;;;;17.52;4.28;;;27.90;99.90;;;;;;4951844;28;20113;-80
2021/06/06 11:07:17;;;;;;;5.93;3.53;;;28.00;99.90;;;;;;4971265;28;20475;-76
2021/06/06 11:09:47;;;;;;;5.53;3.50;;;28.00;99.90;;;;;;4970917;28;20022;-82
2021/06/06 11:12:27;;;;;;;11.63;3.60;;;27.90;99.90;;;;;;4970907;28;20035;-77
2021/06/06 11:14:54;;;;;;;15.85;3.80;;;27.70;99.90;;;;;;4970241;28;20015;-76
2021/06/06 11:17:40;;;;;;;17.60;4.63;;;27.50;99.90;;;;;;4976410;28;20026;-81
2021/06/06 11:20:15;;;;;;;6.65;3.67;;;27.40;99.90;;;;;;4972113;28;20034;-76
2021/06/06 11:22:45;;;;;;;6.32;3.50;;;27.50;99.90;;;;;;4969875;28;20498;-78
2021/06/06 11:25:37;;;;;;;10.75;4.07;;;27.50;99.90;;;;;;4971584;28;20069;-79
2021/06/06 11:28:24;;;;;;;11.38;3.35;;;27.60;99.90;;;;;;4960389;28;20047;-75
2021/06/06 11:30:52;;;;;;;8.30;3.65;;;27.80;99.90;;;;;;4970164;28;20030;-76
2021/06/06 11:33:54;;;;;;;6.10;3.10;;;27.80;99.90;;;;;;4970537;28;20057;-77
2021/06/06 11:36:36;;;;;;;14.45;4.55;;;27.70;99.90;;;;;;4972301;28;20037;-77
2021/06/06 11:39:39;;;;;;;10.13;4.32;;;27.80;99.90;;;;;;4973382;28;20396;-77
2021/06/06 11:42:21;;;;;;;13.05;5.15;;;27.90;99.90;;;;;;4918360;29;20235;-74
2021/06/06 11:44:55;;;;;;;11.18;4.82;;;28.00;99.90;;;;;;4962127;28;20046;-77
2021/06/06 11:47:49;;;;;;;16.38;5.20;;;28.10;99.90;;;;;;4972204;28;20035;-76
2021/06/06 11:50:24;;;;;;;8.65;4.65;;;28.20;99.90;;;;;;4973588;28;20053;-76
2021/06/06 11:53:06;;;;;;;6.50;4.03;;;28.40;99.90;;;;;;4966467;28;20027;-73
2021/06/06 11:55:37;;;;;;;8.77;3.30;;;28.70;99.90;;;;;;4968246;28;20058;-75
2021/06/06 11:58:08;;;;;;;7.25;3.58;;;28.80;99.90;;;;;;4972537;28;20117;-75
2021/06/06 12:00:45;;;;;;;7.75;4.05;;;28.80;99.90;;;;;;4971909;28;20027;-77
2021/06/06 12:03:16;;;;;;;10.50;3.58;;;28.80;99.90;;;;;;4968566;28;20438;-77
2021/06/06 12:06:11;;;;;;;6.25;2.38;;;28.70;99.90;;;;;;4973728;28;20021;-75
2021/06/06 12:08:39;;;;;;;4.03;2.33;;;28.40;99.90;;;;;;4974716;28;20471;-77
2021/06/06 12:11:28;;;;;;;8.57;2.92;;;28.40;99.90;;;;;;4973707;28;20522;-77
2021/06/06 12:14:07;;;;;;;3.95;2.42;;;28.20;99.90;;;;;;4975167;28;20038;-76
2021/06/06 12:16:33;;;;;;;8.05;2.40;;;28.10;99.90;;;;;;4968548;28;20082;-74
2021/06/06 12:19:07;;;;;;;6.63;2.13;;;28.00;99.90;;;;;;4968576;28;20042;-74
2021/06/06 12:21:37;;;;;;;5.15;2.03;;;28.00;99.90;;;;;;4968870;28;20023;-78
2021/06/06 12:24:26;;;;;;;6.13;1.98;;;28.00;99.90;;;;;;4963603;28;20030;-76
2021/06/06 12:26:54;;;;;;;3.65;1.90;;;28.00;99.90;;;;;;4967413;28;20043;-79
2021/06/06 12:29:29;;;;;;;5.53;2.33;;;28.00;99.90;;;;;;4974502;28;20384;-80
2021/06/06 12:32:04;;;;;;;7.18;2.47;;;27.90;99.90;;;;;;4973860;28;20023;-77
2021/06/06 12:34:31;;;;;;;3.85;2.25;;;27.70;99.90;;;;;;4973700;28;20034;-77
2021/06/06 12:37:06;;;;;;;6.53;2.72;;;27.50;99.90;;;;;;4973591;28;20062;-78
2021/06/06 12:39:42;;;;;;;5.53;2.53;;;27.20;99.90;;;;;;4974499;28;20105;-77
2021/06/06 12:42:09;;;;;;;7.45;2.78;;;27.10;99.90;;;;;;4974546;28;20094;-77
2021/06/06 12:44:42;;;;;;;14.88;3.08;;;26.90;99.90;;;;;;4965652;28;20628;-76
2021/06/06 12:47:26;;;;;;;5.85;3.22;;;26.80;99.90;;;;;;4967047;28;20058;-78
2021/06/06 12:50:01;;;;;;;4.07;2.20;;;26.70;99.90;;;;;;4973763;28;20062;-79
2021/06/06 12:52:36;;;;;;;5.47;2.35;;;26.70;99.90;;;;;;4972029;28;20035;-76
2021/06/06 12:55:14;;;;;;;7.68;2.53;;;26.70;99.90;;;;;;4970303;28;20023;-77
2021/06/06 12:58:10;;;;;;;7.10;3.58;;;26.80;99.90;;;;;;4974273;28;20031;-77
2021/06/06 13:00:41;;;;;;;10.98;3.45;;;26.90;99.90;;;;;;4974508;28;20027;-77
2021/06/06 13:03:19;;;;;;;5.95;3.17;;;26.70;99.90;;;;;;4973978;28;20395;-79